TimeCST,TemperatureF,Dew PointF,Humidity,Sea Level PressureIn,VisibilityMPH,Wind Direction,Wind SpeedMPH,Gust SpeedMPH,PrecipitationIn,Events,Conditions,WindDirDegrees,DateUTC
12:15 AM,5.0,3.2,92,30.30,5.0,Calm,Calm,-,N/A,,Clear,0,2013-03-02 06:15:00
12:35 AM,3.2,-0.4,85,30.29,7.0,South,3.5,-,N/A,,Clear,190,2013-03-02 06:35:00
12:55 AM,3.2,-0.4,85,30.29,10.0,SSW,3.5,-,N/A,,Clear,200,2013-03-02 06:55:00
1:15 AM,1.4,-0.4,92,30.28,9.0,South,5.8,-,N/A,,Clear,190,2013-03-02 07:15:00
1:35 AM,1.4,-0.4,92,30.28,0.8,South,4.6,-,N/A,,Mist,190,2013-03-02 07:35:00
1:55 AM,-0.4,-2.2,92,30.27,1.2,South,4.6,-,N/A,,Clear,190,2013-03-02 07:55:00
2:15 AM,-0.4,-2.2,92,30.26,5.0,South,4.6,-,N/A,,Clear,170,2013-03-02 08:15:00
2:35 AM,-0.4,-2.2,92,30.25,6.0,South,5.8,-,N/A,,Clear,180,2013-03-02 08:35:00
3:15 AM,1.4,-0.4,92,30.25,8.0,SSW,5.8,-,N/A,,Mostly Cloudy,210,2013-03-02 09:15:00
3:35 AM,5.0,1.4,85,30.25,10.0,SSW,6.9,-,N/A,,Overcast,210,2013-03-02 09:35:00
3:55 AM,6.8,5.0,92,30.23,10.0,South,6.9,-,N/A,,Overcast,180,2013-03-02 09:55:00
4:15 AM,6.8,5.0,92,30.22,10.0,South,6.9,-,N/A,,Overcast,190,2013-03-02 10:15:00
4:35 AM,5.0,3.2,92,30.22,10.0,South,8.1,-,N/A,,Overcast,180,2013-03-02 10:35:00
4:55 AM,6.8,5.0,92,30.21,10.0,South,9.2,-,N/A,,Overcast,180,2013-03-02 10:55:00
5:15 AM,8.6,6.8,92,30.21,10.0,SSE,6.9,-,N/A,,Overcast,150,2013-03-02 11:15:00
5:55 AM,10.4,8.6,92,30.20,10.0,SE,6.9,-,N/A,,Overcast,130,2013-03-02 11:55:00
6:35 AM,12.2,10.4,92,30.19,10.0,South,8.1,-,N/A,,Overcast,170,2013-03-02 12:35:00
6:55 AM,14.0,12.2,93,30.20,10.0,South,9.2,-,N/A,,Overcast,170,2013-03-02 12:55:00
7:15 AM,14.0,12.2,93,30.18,8.0,South,11.5,-,N/A,,Overcast,170,2013-03-02 13:15:00
7:35 AM,14.0,14.0,100,30.17,10.0,South,11.5,-,N/A,,Overcast,170,2013-03-02 13:35:00
7:55 AM,14.0,14.0,100,30.17,10.0,South,11.5,-,N/A,,Overcast,170,2013-03-02 13:55:00
8:15 AM,15.8,14.0,93,30.16,10.0,South,13.8,-,N/A,Snow,Light Snow,180,2013-03-02 14:15:00
8:35 AM,14.0,14.0,100,30.17,10.0,South,12.7,-,N/A,Snow,Light Snow,170,2013-03-02 14:35:00
8:55 AM,14.0,14.0,100,30.17,10.0,South,13.8,-,N/A,Snow,Light Snow,170,2013-03-02 14:55:00
9:15 AM,15.8,14.0,93,30.17,10.0,SSE,12.7,-,N/A,,Overcast,160,2013-03-02 15:15:00
9:35 AM,15.8,15.8,100,30.17,10.0,South,13.8,-,N/A,Snow,Light Snow,170,2013-03-02 15:35:00
9:55 AM,15.8,15.8,100,30.16,10.0,South,15.0,-,N/A,Snow,Light Snow,170,2013-03-02 15:55:00
10:15 AM,17.6,15.8,93,30.16,10.0,South,13.8,-,N/A,Snow,Light Snow,170,2013-03-02 16:15:00
10:35 AM,17.6,17.6,100,30.15,10.0,South,17.3,-,N/A,,Overcast,180,2013-03-02 16:35:00
10:55 AM,17.6,17.6,100,30.14,10.0,South,17.3,-,N/A,Snow,Light Snow,180,2013-03-02 16:55:00
11:15 AM,19.4,15.8,86,30.13,10.0,South,18.4,24.2,N/A,Snow,Light Snow,190,2013-03-02 17:15:00
11:35 AM,21.2,17.6,86,30.12,10.0,South,21.9,26.5,N/A,Snow,Light Snow,190,2013-03-02 17:35:00
11:55 AM,21.2,17.6,86,30.13,10.0,South,18.4,-,N/A,Snow,Light Snow,180,2013-03-02 17:55:00
12:15 PM,23.0,17.6,80,30.12,10.0,South,19.6,24.2,N/A,Snow,Light Snow,190,2013-03-02 18:15:00
12:35 PM,23.0,17.6,80,30.12,10.0,South,16.1,-,N/A,,Scattered Clouds,180,2013-03-02 18:35:00
12:55 PM,24.8,19.4,80,30.10,10.0,South,18.4,23.0,N/A,Snow,Light Snow,170,2013-03-02 18:55:00
1:15 PM,24.8,19.4,80,30.09,10.0,South,20.7,25.3,N/A,,Clear,190,2013-03-02 19:15:00
1:35 PM,24.8,19.4,80,30.08,10.0,South,19.6,24.2,N/A,,Clear,180,2013-03-02 19:35:00
1:55 PM,24.8,19.4,80,30.07,10.0,South,20.7,25.3,N/A,Snow,Light Snow,190,2013-03-02 19:55:00
2:15 PM,26.6,19.4,74,30.07,10.0,South,18.4,-,N/A,,Clear,190,2013-03-02 20:15:00
2:35 PM,26.6,21.2,80,30.07,10.0,South,15.0,-,N/A,,Clear,180,2013-03-02 20:35:00
2:55 PM,26.6,21.2,80,30.07,10.0,South,17.3,-,N/A,,Mostly Cloudy,180,2013-03-02 20:55:00
3:15 PM,26.6,21.2,80,30.07,10.0,South,17.3,-,N/A,,Overcast,180,2013-03-02 21:15:00
3:35 PM,26.6,21.2,80,30.06,10.0,South,18.4,-,N/A,,Overcast,190,2013-03-02 21:35:00
3:55 PM,26.6,21.2,80,30.06,10.0,South,15.0,-,N/A,,Scattered Clouds,190,2013-03-02 21:55:00
4:15 PM,26.6,21.2,80,30.06,10.0,South,17.3,-,N/A,,Clear,180,2013-03-02 22:15:00
4:35 PM,26.6,21.2,80,30.06,10.0,South,13.8,-,N/A,,Clear,190,2013-03-02 22:35:00
4:55 PM,24.8,19.4,80,30.06,10.0,South,13.8,18.4,N/A,,Clear,190,2013-03-02 22:55:00
5:15 PM,24.8,19.4,80,30.06,10.0,South,15.0,-,N/A,,Clear,190,2013-03-02 23:15:00
5:55 PM,24.8,19.4,80,30.06,10.0,SSE,8.1,-,N/A,,Clear,160,2013-03-02 23:55:00
6:15 PM,24.8,19.4,80,30.06,10.0,South,9.2,-,N/A,,Mostly Cloudy,170,2013-03-03 00:15:00
6:35 PM,23.0,19.4,86,30.06,10.0,SSE,10.4,-,N/A,,Mostly Cloudy,160,2013-03-03 00:35:00
6:55 PM,23.0,19.4,86,30.07,10.0,SSE,11.5,-,N/A,,Overcast,160,2013-03-03 00:55:00
7:15 PM,23.0,19.4,86,30.06,10.0,SSE,10.4,-,N/A,,Overcast,150,2013-03-03 01:15:00
7:35 PM,23.0,19.4,86,30.06,10.0,SSE,11.5,-,N/A,,Overcast,160,2013-03-03 01:35:00
7:55 PM,21.2,19.4,93,30.05,10.0,SSE,12.7,-,N/A,,Overcast,160,2013-03-03 01:55:00
8:15 PM,21.2,19.4,93,30.04,10.0,South,11.5,-,N/A,,Overcast,170,2013-03-03 02:15:00
8:35 PM,21.2,19.4,93,30.04,10.0,South,12.7,-,N/A,,Overcast,170,2013-03-03 02:35:00
8:55 PM,19.4,19.4,100,30.04,10.0,South,12.7,-,N/A,,Overcast,170,2013-03-03 02:55:00
9:15 PM,19.4,19.4,100,30.03,10.0,South,11.5,-,N/A,,Overcast,170,2013-03-03 03:15:00
9:35 PM,19.4,19.4,100,30.03,10.0,SSE,11.5,-,N/A,,Overcast,160,2013-03-03 03:35:00
9:55 PM,19.4,19.4,100,30.02,10.0,South,12.7,-,N/A,,Overcast,170,2013-03-03 03:55:00
10:15 PM,19.4,19.4,100,30.02,10.0,SSE,11.5,-,N/A,,Overcast,160,2013-03-03 04:15:00
10:35 PM,19.4,19.4,100,30.02,10.0,SSE,11.5,-,N/A,,Overcast,160,2013-03-03 04:35:00
10:55 PM,19.4,17.6,93,30.01,10.0,SSE,12.7,-,N/A,,Overcast,160,2013-03-03 04:55:00
11:15 PM,17.6,17.6,100,30.01,10.0,SSE,12.7,-,N/A,,Overcast,160,2013-03-03 05:15:00
11:35 PM,17.6,17.6,100,30.00,10.0,SSE,10.4,-,N/A,,Overcast,160,2013-03-03 05:35:00
11:55 PM,17.6,17.6,100,30.00,10.0,South,9.2,-,N/A,,Overcast,170,2013-03-03 05:55:00